Time;durP1;ratioP1;P1;durP2;ratioP2;P2;SDS_P1;SDS_P2;PMS_P1;PMS_P2;Temp;Humidity;BMP_temperature;BMP_pressure;BME280_temperature;BME280_humidity;BME280_pressure;Samples;Min_cycle;Max_cycle;Signal;HPM_P1;HPM_P2
2021/04/01 00:01:10;;;;;;;9.25;6.25;;;;;;;17.30;26.94;101523.09;5081549;28;20051;-77
2021/04/01 00:03:44;;;;;;;10.75;5.97;;;;;;;17.25;27.08;101524.59;5095305;28;20120;-78
2021/04/01 00:06:13;;;;;;;8.70;5.78;;;;;;;17.22;27.03;101523.00;5095036;28;20126;-78
2021/04/01 00:08:41;;;;;;;9.13;6.20;;;;;;;17.20;27.31;101521.44;5098953;28;20064;-77
2021/04/01 00:11:09;;;;;;;9.55;6.43;;;;;;;17.18;27.26;101509.66;5092000;28;20086;-78
2021/04/01 00:13:38;;;;;;;9.40;6.75;;;;;;;17.15;27.23;101505.31;5107049;28;20043;-77
2021/04/01 00:16:06;;;;;;;9.32;6.18;;;;;;;17.13;27.26;101512.03;5101215;28;20048;-77
2021/04/01 00:18:36;;;;;;;8.27;5.85;;;;;;;17.10;26.96;101506.84;5082664;28;20123;-78
2021/04/01 00:21:04;;;;;;;9.00;6.03;;;;;;;17.06;27.34;101500.75;5082567;28;20044;-77
2021/04/01 00:23:52;;;;;;;9.73;6.10;;;;;;;17.08;27.54;101500.59;5096090;28;20043;-77
2021/04/01 00:26:20;;;;;;;8.07;5.45;;;;;;;16.99;27.34;101499.66;5091318;28;20548;-78
2021/04/01 00:28:48;;;;;;;12.43;6.05;;;;;;;16.99;27.17;101502.41;5096313;28;20067;-77
2021/04/01 00:31:15;;;;;;;9.85;6.13;;;;;;;16.94;27.30;101502.91;5108217;28;20044;-77
2021/04/01 00:33:43;;;;;;;8.85;5.82;;;;;;;16.91;27.61;101497.69;5091514;28;20046;-78
2021/04/01 00:36:11;;;;;;;8.90;5.90;;;;;;;16.90;27.28;101498.69;5101157;28;20039;-77
2021/04/01 00:38:38;;;;;;;9.38;6.28;;;;;;;16.86;27.56;101500.06;5098218;28;20123;-77
2021/04/01 00:41:06;;;;;;;9.98;5.78;;;;;;;16.84;27.55;101504.00;5112193;28;20498;-77
2021/04/01 00:43:34;;;;;;;7.60;5.75;;;;;;;16.82;27.41;101504.16;5113127;28;20031;-78
2021/04/01 00:46:02;;;;;;;7.95;5.43;;;;;;;16.81;27.53;101507.06;5094968;28;20103;-77
2021/04/01 00:48:30;;;;;;;7.97;5.30;;;;;;;16.77;27.93;101494.59;5103375;28;20036;-77
2021/04/01 00:50:58;;;;;;;7.68;4.97;;;;;;;16.75;27.48;101502.19;5113533;28;20413;-77
2021/04/01 00:53:26;;;;;;;7.55;5.53;;;;;;;16.73;27.56;101498.69;5112800;28;20043;-77
2021/04/01 00:55:53;;;;;;;7.32;5.25;;;;;;;16.70;28.06;101499.91;5094676;28;20503;-77
2021/04/01 00:58:21;;;;;;;7.43;4.93;;;;;;;16.68;27.71;101499.19;5098992;28;20050;-78
2021/04/01 01:00:59;;;;;;;6.95;4.90;;;;;;;16.68;28.23;101503.84;5109592;28;20390;-78
2021/04/01 01:03:27;;;;;;;8.45;4.93;;;;;;;16.66;27.93;101500.34;5111139;27;20135;-77
2021/04/01 01:05:54;;;;;;;6.75;4.68;;;;;;;16.63;28.27;101490.47;5098426;28;20052;-77
2021/04/01 01:08:22;;;;;;;7.80;4.90;;;;;;;16.61;27.76;101492.53;5100743;28;20043;-77
2021/04/01 01:10:51;;;;;;;7.30;5.18;;;;;;;16.60;28.26;101489.94;5094244;28;20042;-77
2021/04/01 01:13:19;;;;;;;8.38;5.00;;;;;;;16.59;27.97;101489.06;5095580;28;20123;-77
2021/04/01 01:15:46;;;;;;;8.60;4.68;;;;;;;16.58;28.36;101486.44;5095069;28;20150;-77
2021/04/01 01:18:13;;;;;;;6.55;4.72;;;;;;;16.55;28.16;101485.72;5081559;28;20044;-77
2021/04/01 01:20:43;;;;;;;6.15;5.00;;;;;;;16.55;28.10;101485.72;5075570;28;20127;-77
2021/04/01 01:23:20;;;;;;;7.05;4.78;;;;;;;16.54;28.35;101492.31;5113971;28;20036;-77
2021/04/01 01:25:49;;;;;;;7.68;5.15;;;;;;;16.52;28.36;101491.59;5089428;28;20048;-77
2021/04/01 01:28:16;;;;;;;6.70;4.78;;;;;;;16.51;28.20;101494.50;5091461;28;20131;-77
2021/04/01 01:30:45;;;;;;;7.13;4.82;;;;;;;16.48;28.52;101492.03;5092378;28;20449;-77
2021/04/01 01:33:17;;;;;;;7.75;5.47;;;;;;;16.46;28.50;101489.44;5085953;28;20040;-77
2021/04/01 01:35:46;;;;;;;7.22;4.88;;;;;;;16.45;28.22;101495.09;5100810;28;20043;-77
2021/04/01 01:38:14;;;;;;;7.22;5.15;;;;;;;16.44;28.52;101488.72;5089716;28;20459;-77
2021/04/01 01:40:42;;;;;;;6.53;5.10;;;;;;;16.42;28.75;101496.28;5086866;28;20054;-77
2021/04/01 01:43:11;;;;;;;7.43;5.25;;;;;;;16.41;28.48;101486.25;5091970;28;20122;-77
2021/04/01 01:45:40;;;;;;;7.30;5.13;;;;;;;16.40;28.72;101489.16;5111281;28;20040;-77
2021/04/01 01:48:09;;;;;;;7.70;5.13;;;;;;;16.38;28.65;101485.69;5085833;28;20036;-77
2021/04/01 01:50:38;;;;;;;8.20;5.15;;;;;;;16.36;28.64;101488.63;5109510;28;20059;-77
2021/04/01 01:53:06;;;;;;;8.13;4.97;;;;;;;16.33;28.93;101488.91;5094828;28;20414;-77
2021/04/01 01:55:34;;;;;;;6.95;4.70;;;;;;;16.32;28.63;101489.94;5093467;28;20364;-77
2021/04/01 01:58:02;;;;;;;8.18;4.68;;;;;;;16.30;28.71;101485.59;5102578;28;20035;-77
2021/04/01 02:00:37;;;;;;;6.80;4.57;;;;;;;16.30;29.30;101483.69;5090614;28;20059;-77
2021/04/01 02:03:08;;;;;;;6.97;4.25;;;;;;;16.27;28.89;101481.25;5108028;28;20063;-77
2021/04/01 02:05:38;;;;;;;6.40;4.55;;;;;;;16.28;29.35;101484.88;5108667;28;20034;-77
2021/04/01 02:08:09;;;;;;;8.35;5.07;;;;;;;16.24;28.65;101480.69;5089905;28;20126;-77
2021/04/01 02:10:39;;;;;;;6.93;4.78;;;;;;;16.23;28.91;101492.75;5092056;28;20046;-77
2021/04/01 02:13:07;;;;;;;6.72;4.25;;;;;;;16.22;28.90;101491.03;5089056;28;20068;-77
2021/04/01 02:15:37;;;;;;;7.55;4.93;;;;;;;16.22;29.34;101491.03;5111390;28;20047;-77
2021/04/01 02:18:06;;;;;;;6.97;4.78;;;;;;;16.18;29.12;101487.69;5095238;28;20118;-77
2021/04/01 02:20:40;;;;;;;7.28;4.65;;;;;;;16.16;29.17;101489.72;5113633;28;20042;-76
2021/04/01 02:23:09;;;;;;;7.68;5.03;;;;;;;16.15;29.30;101488.00;5116540;28;20039;-77
2021/04/01 02:25:37;;;;;;;7.75;4.55;;;;;;;16.13;29.37;101485.41;5115369;27;20044;-76
2021/04/01 02:28:05;;;;;;;6.78;4.13;;;;;;;16.11;29.35;101481.94;5078240;28;20415;-77
2021/04/01 02:30:32;;;;;;;7.07;5.03;;;;;;;16.09;29.20;101483.09;5113798;28;20035;-76
2021/04/01 02:33:01;;;;;;;6.90;4.53;;;;;;;16.09;29.06;101488.63;5103169;28;20044;-76
2021/04/01 02:35:29;;;;;;;6.85;4.28;;;;;;;16.04;28.96;101479.94;5104579;28;20037;-77
2021/04/01 02:37:56;;;;;;;6.00;4.28;;;;;;;16.01;29.17;101483.88;5112260;27;20041;-76
2021/04/01 02:40:24;;;;;;;6.32;4.20;;;;;;;15.98;29.33;101467.59;5107875;27;20177;-75
2021/04/01 02:42:52;;;;;;;6.03;4.22;;;;;;;15.97;29.33;101473.28;5107649;27;20102;-76
2021/04/01 02:45:19;;;;;;;6.78;4.32;;;;;;;15.94;29.37;101471.69;5110857;27;20070;-76
2021/04/01 02:47:47;;;;;;;7.45;4.65;;;;;;;15.93;29.35;101469.09;5110027;28;20122;-75
2021/04/01 02:50:15;;;;;;;5.82;4.30;;;;;;;15.93;29.60;101469.97;5096421;28;20040;-76
2021/04/01 02:52:42;;;;;;;8.88;4.60;;;;;;;15.89;29.47;101470.44;5115940;28;20051;-75
2021/04/01 02:55:12;;;;;;;7.38;4.55;;;;;;;15.89;29.59;101470.44;5114072;28;20359;-76
2021/04/01 02:57:40;;;;;;;5.95;4.18;;;;;;;15.85;29.35;101466.22;5113068;27;20463;-76
2021/04/01 03:00:11;;;;;;;7.60;3.95;;;;;;;15.85;29.48;101477.25;5108623;27;20035;-76
2021/04/01 03:02:42;;;;;;;7.70;4.05;;;;;;;15.82;29.92;101472.91;5108609;28;20051;-76
2021/04/01 03:05:12;;;;;;;6.30;3.97;;;;;;;15.78;29.36;101472.34;5113381;27;20085;-76
2021/04/01 03:07:41;;;;;;;7.43;4.38;;;;;;;15.77;30.04;101467.84;5111467;27;20035;-76
2021/04/01 03:10:52;;;;;;;6.82;4.28;;;;;;;15.77;30.03;101472.50;5112436;27;20040;-76
2021/04/01 03:14:03;;;;;;;9.98;4.50;;;;;;;15.70;29.90;101468.63;5046908;28;20048;-76
2021/04/01 03:16:34;;;;;;;7.15;4.55;;;;;;;15.65;29.96;101462.66;5043626;28;20072;-76
2021/04/01 03:19:02;;;;;;;7.68;4.22;;;;;;;15.65;29.52;101459.91;5051598;28;20055;-76
2021/04/01 03:21:29;;;;;;;6.82;4.00;;;;;;;15.62;29.75;101458.31;5046513;28;20473;-75
2021/04/01 03:23:58;;;;;;;7.63;4.30;;;;;;;15.63;30.13;101460.06;5054608;28;20488;-75
2021/04/01 03:26:26;;;;;;;7.03;4.35;;;;;;;15.60;29.84;101464.97;5050812;28;20040;-76
2021/04/01 03:28:54;;;;;;;6.47;4.18;;;;;;;15.58;30.23;101464.25;5050682;28;20045;-76
2021/04/01 03:31:21;;;;;;;5.70;3.95;;;;;;;15.57;29.89;101473.53;5045869;28;20045;-76
2021/04/01 03:33:48;;;;;;;8.73;4.57;;;;;;;15.55;30.51;101470.97;5052193;28;20498;-76
2021/04/01 03:36:16;;;;;;;6.68;4.43;;;;;;;15.55;30.19;101475.59;5053393;28;20055;-76
2021/04/01 03:38:46;;;;;;;6.45;4.07;;;;;;;15.54;29.90;101480.25;5048022;28;20055;-76
2021/04/01 03:41:14;;;;;;;6.60;3.92;;;;;;;15.55;30.32;101489.41;5032702;28;20080;-76
2021/04/01 03:43:41;;;;;;;7.15;3.95;;;;;;;15.52;29.95;101485.03;5045899;28;20057;-76
2021/04/01 03:46:10;;;;;;;6.32;4.13;;;;;;;15.52;30.46;101487.81;5040897;28;20048;-76
2021/04/01 03:48:38;;;;;;;6.38;4.22;;;;;;;15.52;30.38;101486.94;5045631;28;20037;-75
2021/04/01 03:51:06;;;;;;;6.53;4.35;;;;;;;15.53;30.14;101484.03;5108391;28;20097;-76
2021/04/01 03:53:33;;;;;;;7.75;4.63;;;;;;;15.51;30.38;101485.19;5113816;28;20039;-76
2021/04/01 03:56:00;;;;;;;6.35;4.65;;;;;;;15.52;30.62;101475.91;5105751;27;20043;-76
2021/04/01 04:04:25;;;;;;;7.63;4.50;;;;;;;15.49;30.52;101487.22;5092433;28;20038;-76
2021/04/01 04:12:30;;;;;;;6.32;4.63;;;;;;;15.46;30.54;101490.28;5110981;27;20044;-76
2021/04/01 04:15:06;;;;;;;5.95;4.35;;;;;;;15.47;30.21;101489.28;5112072;28;20372;-76
2021/04/01 04:17:33;;;;;;;8.43;4.80;;;;;;;15.44;30.06;101487.69;5110014;28;20594;-76
2021/04/01 04:20:00;;;;;;;7.63;4.78;;;;;;;15.44;30.56;101495.94;5110008;27;20031;-76
2021/04/01 04:22:28;;;;;;;6.78;4.75;;;;;;;15.42;30.49;101496.09;5101329;28;20089;-76
2021/04/01 04:24:56;;;;;;;5.85;4.43;;;;;;;15.41;30.65;101499.00;5112915;28;20043;-76
2021/04/01 04:27:56;;;;;;;6.88;4.35;;;;;;;15.41;30.66;101510.00;5092268;28;20089;-76
2021/04/01 04:30:27;;;;;;;6.55;4.55;;;;;;;15.40;30.54;101505.50;5107643;28;20035;-76
2021/04/01 04:32:55;;;;;;;8.98;4.80;;;;;;;15.38;30.79;101507.56;5110274;27;20387;-76
2021/04/01 04:35:26;;;;;;;8.93;4.78;;;;;;;15.36;30.65;101516.00;5112268;28;20090;-76
2021/04/01 04:37:55;;;;;;;6.85;4.45;;;;;;;15.38;30.41;101524.13;5110650;28;20067;-76
2021/04/01 04:40:23;;;;;;;7.60;4.90;;;;;;;15.38;30.96;101521.38;5106707;28;20119;-76
2021/04/01 04:42:50;;;;;;;7.15;5.10;;;;;;;15.36;30.95;101516.00;5110349;28;20085;-76
2021/04/01 04:45:18;;;;;;;9.63;5.20;;;;;;;15.36;30.56;101517.88;5109200;28;20166;-75
2021/04/01 04:47:46;;;;;;;6.55;4.72;;;;;;;15.36;30.71;101518.75;5111825;28;20127;-76
2021/04/01 04:50:14;;;;;;;7.32;4.90;;;;;;;15.35;30.55;101514.25;5111046;28;20061;-77
2021/04/01 04:52:41;;;;;;;10.63;5.28;;;;;;;15.34;30.96;101518.00;5107727;28;20390;-76
2021/04/01 04:55:10;;;;;;;8.60;5.20;;;;;;;15.33;30.50;101519.03;5116682;27;20039;-77
2021/04/01 04:57:49;;;;;;;8.35;4.70;;;;;;;15.33;30.40;101519.03;5109892;28;20050;-77
2021/04/01 05:06:03;;;;;;;7.43;5.03;;;;;;;15.25;30.41;101516.13;5099847;28;20040;-77
2021/04/01 05:08:32;;;;;;;8.40;5.90;;;;;;;15.25;31.00;101521.66;5098034;28;20042;-76
2021/04/01 05:10:59;;;;;;;7.50;5.03;;;;;;;15.24;30.44;101527.31;5109654;28;20061;-77
2021/04/01 05:13:26;;;;;;;9.15;4.85;;;;;;;15.24;30.94;101530.06;5104372;28;20093;-78
2021/04/01 05:15:55;;;;;;;6.97;4.75;;;;;;;15.21;31.00;101528.50;5110132;28;20101;-78
2021/04/01 05:18:26;;;;;;;8.02;5.07;;;;;;;15.23;30.76;101533.88;5113287;28;20475;-78
2021/04/01 05:20:55;;;;;;;7.80;5.43;;;;;;;15.20;31.02;101539.66;5107729;28;20067;-78
2021/04/01 05:23:35;;;;;;;9.32;5.50;;;;;;;15.21;30.69;101546.91;5105730;28;20073;-77
2021/04/01 05:29:01;;;;;;;7.70;5.38;;;;;;;15.14;30.96;101546.63;5111096;28;20040;-78
2021/04/01 05:31:33;;;;;;;9.43;5.22;;;;;;;15.13;30.66;101549.53;5105828;28;20135;-77
2021/04/01 05:34:01;;;;;;;8.85;5.28;;;;;;;15.15;31.09;101548.34;5105768;28;20131;-76
2021/04/01 05:36:33;;;;;;;9.18;5.53;;;;;;;15.11;31.07;101541.41;5101481;28;20498;-76
2021/04/01 05:39:01;;;;;;;8.10;5.53;;;;;;;15.10;31.15;101550.69;5100827;28;20094;-77
2021/04/01 05:41:30;;;;;;;10.13;5.60;;;;;;;15.11;30.63;101554.31;5093993;28;20394;-76
2021/04/01 05:44:06;;;;;;;9.02;5.60;;;;;;;15.11;30.91;101563.44;5098015;28;20040;-77
2021/04/01 05:46:38;;;;;;;9.20;5.90;;;;;;;15.09;31.31;101561.84;5107417;28;20565;-76
2021/04/01 05:49:21;;;;;;;8.18;5.03;;;;;;;15.11;31.47;101557.94;5112607;28;20430;-76
2021/04/01 06:03:15;;;;;;;9.85;6.50;;;;;;;15.03;31.26;101577.06;5106083;28;20113;-76
2021/04/01 06:05:46;;;;;;;8.45;5.32;;;;;;;14.99;31.00;101587.50;5107765;28;20051;-77
2021/04/01 06:08:16;;;;;;;7.60;5.63;;;;;;;14.97;30.91;101583.16;5095753;28;20115;-75
2021/04/01 06:10:44;;;;;;;9.15;6.15;;;;;;;14.96;31.34;101585.06;5112315;28;20439;-73
2021/04/01 06:13:24;;;;;;;8.48;5.75;;;;;;;14.98;31.84;101588.50;5114336;28;20035;-74
2021/04/01 06:16:02;;;;;;;;;;;;;;;;;;;;;
2021/04/01 06:18:50;;;;;;;11.10;6.00;;;;;;;14.97;31.55;101602.44;5112532;27;20130;-73
2021/04/01 06:21:24;;;;;;;7.95;5.78;;;;;;;14.97;31.32;101592.31;5115407;28;20032;-74
2021/04/01 06:23:58;;;;;;;8.02;5.70;;;;;;;14.96;31.84;101590.56;5101391;28;20050;-73
2021/04/01 06:26:32;;;;;;;9.77;6.20;;;;;;;14.98;31.62;101587.66;5114528;28;20044;-74
2021/04/01 06:29:02;;;;;;;10.70;6.07;;;;;;;14.97;31.26;101592.31;5103474;27;20497;-76
2021/04/01 06:31:40;;;;;;;10.32;6.28;;;;;;;15.01;31.64;101592.88;5116204;27;20377;-75
2021/04/01 06:34:08;;;;;;;8.65;6.15;;;;;;;14.99;31.73;101586.63;5115139;27;20063;-75
2021/04/01 06:36:48;;;;;;;9.93;5.75;;;;;;;15.03;31.99;101580.69;5115040;28;20047;-75
2021/04/01 06:39:19;;;;;;;8.75;6.13;;;;;;;15.02;31.43;101573.44;5119302;27;20054;-77
2021/04/01 06:41:48;;;;;;;10.95;6.78;;;;;;;15.05;31.55;101570.41;5095085;28;20564;-73
2021/04/01 06:44:28;;;;;;;10.52;6.10;;;;;;;15.13;31.98;101575.19;5072334;27;20146;-73
2021/04/01 06:47:06;;;;;;;10.00;6.35;;;;;;;15.16;31.96;101576.78;5114857;28;20048;-73
2021/04/01 06:50:00;;;;;;;10.18;6.30;;;;;;;15.20;32.27;101570.84;5108709;28;20074;-73
2021/04/01 06:52:34;;;;;;;9.50;6.25;;;;;;;15.23;31.95;101576.03;5108060;28;20085;-73
2021/04/01 06:55:13;;;;;;;9.10;6.85;;;;;;;15.29;32.13;101571.84;5109770;28;20486;-73
2021/04/01 07:00:43;;;;;;;10.43;6.50;;;;;;;15.41;32.19;101578.94;5111331;27;20047;-72
2021/04/01 07:03:21;;;;;;;10.20;6.20;;;;;;;15.53;32.18;101583.28;5103614;28;20040;-74
2021/04/01 07:05:55;;;;;;;10.15;6.55;;;;;;;15.64;32.39;101585.06;5113369;27;20097;-76
2021/04/01 07:08:41;;;;;;;11.10;6.43;;;;;;;15.77;32.40;101586.47;5114937;28;20081;-76
2021/04/01 07:11:20;;;;;;;10.82;6.85;;;;;;;15.91;32.24;101578.72;5114468;28;20050;-80
2021/04/01 07:13:53;;;;;;;9.88;7.22;;;;;;;16.08;32.16;101570.53;5101182;28;20063;-83
2021/04/01 07:16:29;;;;;;;11.77;7.07;;;;;;;16.24;32.41;101588.34;5107595;28;20035;-83
2021/04/01 07:19:16;;;;;;;9.10;6.32;;;;;;;16.41;32.17;101584.78;5113415;28;20047;-76
2021/04/01 07:47:06;;;;;;;11.35;8.25;;;;;;;17.97;30.25;101587.91;5107896;28;20040;-77
2021/04/01 07:49:41;;;;;;;12.73;9.02;;;;;;;18.09;29.99;101587.69;5113058;28;20063;-77
2021/04/01 07:52:10;;;;;;;12.98;8.38;;;;;;;18.16;30.08;101595.16;5111367;28;20085;-80
2021/04/01 07:54:52;;;;;;;13.63;9.40;;;;;;;18.27;29.33;101596.78;5096817;28;20035;-78
2021/04/01 08:00:23;;;;;;;15.90;9.50;;;;;;;18.35;29.04;101606.03;5103069;27;20090;-72
2021/04/01 08:03:00;;;;;;;16.23;10.15;;;;;;;18.39;28.81;101599.09;5111296;28;20100;-74
2021/04/01 08:05:30;;;;;;;16.05;10.13;;;;;;;18.45;28.60;101597.56;5102972;28;20130;-74
2021/04/01 08:08:00;;;;;;;17.55;10.73;;;;;;;18.46;28.82;101590.97;5099353;28;20043;-75
2021/04/01 08:10:31;;;;;;;16.30;10.35;;;;;;;18.48;28.63;101586.16;5111660;28;20102;-74
2021/04/01 08:13:04;;;;;;;18.05;11.05;;;;;;;18.51;28.86;101585.81;5092489;28;20043;-74
2021/04/01 08:17:01;;;;;;;17.08;10.57;;;;;;;18.55;28.31;101589.13;3643788;39;20372;-64
2021/04/01 08:19:34;;;;;;;17.05;10.50;;;;;;;18.54;28.73;101588.25;3643268;39;20066;-64
2021/04/01 08:22:27;;;;;;;18.10;10.20;;;;;;;18.56;28.58;101586.19;3643358;39;20129;-64
2021/04/01 08:25:18;;;;;;;20.35;11.95;;;;;;;18.60;28.54;101583.97;3633675;39;20100;-64
2021/04/01 08:28:18;;;;;;;19.63;11.35;;;;;;;18.63;28.08;101586.38;3643475;39;20069;-64
2021/04/01 08:31:39;;;;;;;21.40;12.18;;;;;;;18.64;28.40;101586.22;3643352;39;20101;-64
2021/04/01 08:34:39;;;;;;;20.92;12.10;;;;;;;18.67;28.36;101594.19;3643467;39;20318;-65
2021/04/01 08:37:32;;;;;;;18.33;10.23;;;;;;;18.72;27.97;101588.16;3643364;39;20222;-64
2021/04/01 08:40:19;;;;;;;20.63;11.27;;;;;;;18.71;27.73;101591.94;3643053;39;20105;-64
2021/04/01 08:43:33;;;;;;;18.92;11.05;;;;;;;18.80;27.72;101594.63;3641899;39;20282;-64
2021/04/01 08:46:42;;;;;;;23.92;12.95;;;;;;;18.85;26.63;101602.44;3632965;39;20054;-65
2021/04/01 08:49:40;;;;;;;24.60;13.40;;;;;;;18.87;26.68;101600.34;3635345;39;20329;-65
2021/04/01 08:52:32;;;;;;;24.33;12.77;;;;;;;18.94;26.36;101594.97;3640384;39;20077;-65
2021/04/01 08:55:04;;;;;;;23.90;12.93;;;;;;;19.00;26.71;101603.53;3638662;39;20070;-66
2021/04/01 08:57:45;;;;;;;27.70;14.48;;;;;;;19.08;26.71;101608.22;3630540;39;20098;-65
2021/04/01 09:00:14;;;;;;;21.48;13.20;;;;;;;19.16;26.60;101614.66;3642364;39;20113;-66
2021/04/01 09:02:48;;;;;;;24.65;13.48;;;;;;;19.24;26.03;101601.81;3632488;39;20067;-65
2021/04/01 09:05:19;;;;;;;28.65;14.15;;;;;;;19.30;26.36;101595.59;3642883;39;20364;-66
2021/04/01 09:07:50;;;;;;;29.13;14.70;;;;;;;19.35;25.83;101594.00;3639717;39;20393;-66
2021/04/01 09:10:21;;;;;;;25.65;13.95;;;;;;;19.43;26.52;101596.78;3638798;39;20391;-66
2021/04/01 09:12:54;;;;;;;24.25;13.45;;;;;;;19.51;25.88;101602.38;3641904;39;20342;-66
2021/04/01 09:15:26;;;;;;;26.50;13.65;;;;;;;19.55;25.75;101597.38;3639900;39;20078;-66
2021/04/01 09:17:53;;;;;;;24.98;11.75;;;;;;;19.63;26.34;101597.34;3629736;39;20063;-65
2021/04/01 09:20:23;;;;;;;28.60;14.73;;;;;;;19.76;25.74;101607.94;3632423;39;20081;-66
2021/04/01 09:22:53;;;;;;;23.85;13.23;;;;;;;19.83;25.46;101603.44;3636332;39;20405;-66
2021/04/01 09:25:22;;;;;;;26.33;14.80;;;;;;;19.90;25.26;101599.78;3634704;39;20078;-65
2021/04/01 09:27:52;;;;;;;29.45;15.23;;;;;;;19.99;25.74;101589.53;3636845;39;20149;-65
2021/04/01 09:30:23;;;;;;;25.23;14.32;;;;;;;20.07;25.59;101599.75;3628919;39;20316;-66
2021/04/01 09:32:54;;;;;;;29.17;15.98;;;;;;;20.13;24.81;101594.34;3632134;39;20167;-66
2021/04/01 09:35:25;;;;;;;29.60;14.77;;;;;;;20.20;25.27;101580.59;3635532;39;20078;-66
2021/04/01 09:37:54;;;;;;;27.55;15.73;;;;;;;20.29;24.94;101582.34;3632230;39;20086;-66
2021/04/01 09:40:30;;;;;;;23.50;13.27;;;;;;;20.40;25.09;101586.66;3628608;39;20428;-66
2021/04/01 09:43:13;;;;;;;23.05;14.00;;;;;;;20.47;24.55;101582.13;3626905;39;20087;-66
2021/04/01 09:45:41;;;;;;;22.13;12.45;;;;;;;20.51;25.38;101578.78;3625887;39;20058;-66
2021/04/01 09:48:10;;;;;;;26.27;13.43;;;;;;;20.60;25.16;101574.91;3631033;39;20083;-66
2021/04/01 09:50:41;;;;;;;26.70;15.80;;;;;;;20.71;24.60;101587.56;3626644;39;20109;-66
2021/04/01 09:53:18;;;;;;;26.50;14.02;;;;;;;20.80;24.74;101582.81;3631893;39;20071;-67
2021/04/01 09:55:47;;;;;;;25.58;14.13;;;;;;;20.89;25.32;101584.53;3630764;39;20063;-66
2021/04/01 09:58:20;;;;;;;25.05;14.23;;;;;;;20.98;24.46;101575.97;3627688;39;20425;-67
2021/04/01 10:01:01;;;;;;;23.30;13.57;;;;;;;21.05;25.09;101576.97;3624595;39;20245;-67
2021/04/01 10:03:34;;;;;;;23.50;13.25;;;;;;;21.16;25.04;101592.34;3629843;39;20101;-67
2021/04/01 10:06:03;;;;;;;27.02;15.93;;;;;;;21.25;24.71;101588.47;3630416;39;20074;-67
2021/04/01 10:08:31;;;;;;;28.20;15.23;;;;;;;21.35;24.22;101593.78;3619939;34;20078;-64
2021/04/01 10:11:02;;;;;;;25.92;14.75;;;;;;;21.43;24.65;101591.81;3616844;39;20071;-64
2021/04/01 10:13:32;;;;;;;26.23;14.38;;;;;;;21.52;24.12;101591.72;3613552;39;20075;-64
2021/04/01 10:16:01;;;;;;;23.58;13.90;;;;;;;21.59;24.23;101595.53;3612513;39;20198;-65
2021/04/01 10:18:33;;;;;;;26.70;14.15;;;;;;;21.67;24.11;101585.19;3613379;39;20398;-66
2021/04/01 10:21:04;;;;;;;28.23;15.27;;;;;;;21.73;23.50;101586.38;3613183;39;20407;-65
2021/04/01 10:23:42;;;;;;;23.40;14.02;;;;;;;21.82;23.69;101580.50;3609293;39;20333;-64
2021/04/01 10:26:11;;;;;;;26.63;13.85;;;;;;;21.86;24.03;101581.00;3600051;39;20079;-65
2021/04/01 10:28:45;;;;;;;26.13;14.85;;;;;;;21.95;23.82;101579.88;3617074;39;20126;-65
2021/04/01 10:31:17;;;;;;;28.55;15.93;;;;;;;22.02;23.08;101582.75;3614037;39;20382;-65
2021/04/01 10:34:16;;;;;;;28.10;17.10;;;;;;;22.07;23.15;101578.34;3618591;39;20164;-64
2021/04/01 10:36:44;;;;;;;29.23;15.88;;;;;;;22.13;23.43;101577.59;3608922;39;20083;-65
2021/04/01 10:39:12;;;;;;;26.65;14.65;;;;;;;22.19;23.46;101574.03;3618213;39;20067;-65
2021/04/01 10:41:50;;;;;;;29.60;16.05;;;;;;;22.31;23.23;101576.41;3604968;39;20158;-66
2021/04/01 10:44:19;;;;;;;26.00;16.27;;;;;;;22.36;23.27;101582.25;3605007;39;20082;-64
2021/04/01 10:46:49;;;;;;;26.55;15.93;;;;;;;22.42;22.91;101579.53;3616882;39;20104;-65
2021/04/01 10:49:21;;;;;;;30.17;18.52;;;;;;;22.49;22.28;101576.84;3617876;39;20079;-65
2021/04/01 10:51:51;;;;;;;32.80;17.67;;;;;;;22.53;22.79;101583.78;3618567;39;20076;-64
2021/04/01 10:54:23;;;;;;;29.33;16.88;;;;;;;22.58;22.99;101573.75;3614894;39;20083;-65
2021/04/01 10:56:54;;;;;;;29.80;16.23;;;;;;;22.67;22.73;101579.22;3617229;39;20079;-66
2021/04/01 10:59:32;;;;;;;28.70;15.80;;;;;;;22.71;21.93;101573.09;3615818;39;20079;-65
2021/04/01 11:02:03;;;;;;;28.35;15.98;;;;;;;22.75;22.19;101570.75;3611328;39;20328;-65
2021/04/01 11:04:34;;;;;;;26.48;15.25;;;;;;;22.79;21.99;101572.97;3617493;39;20102;-65
2021/04/01 11:07:03;;;;;;;30.55;15.68;;;;;;;22.85;21.92;101579.72;3613370;39;21653;-65
2021/04/01 11:09:34;;;;;;;29.35;15.25;;;;;;;22.90;21.81;101579.97;3619521;39;20082;-66
2021/04/01 11:12:14;;;;;;;25.77;14.65;;;;;;;22.92;22.09;101578.72;3604789;39;20107;-65
2021/04/01 11:14:50;;;;;;;25.95;14.73;;;;;;;23.00;21.64;101576.88;3618502;39;20110;-66
2021/04/01 11:17:20;;;;;;;30.27;16.17;;;;;;;23.03;22.33;101579.28;3612672;39;20072;-67
2021/04/01 11:19:50;;;;;;;31.88;16.60;;;;;;;23.06;21.61;101588.09;3618317;39;20091;-66
2021/04/01 11:22:18;;;;;;;32.42;17.52;;;;;;;23.11;21.78;101587.53;3615190;39;20177;-65
2021/04/01 11:24:45;;;;;;;31.88;17.13;;;;;;;23.13;22.10;101583.50;3613459;39;20088;-65
2021/04/01 11:27:15;;;;;;;32.95;18.02;;;;;;;23.19;21.56;101581.81;3615746;39;20099;-65
2021/04/01 11:29:51;;;;;;;36.60;19.42;;;;;;;23.24;21.70;101587.66;3614193;39;20071;-66
2021/04/01 11:32:21;;;;;;;37.08;19.10;;;;;;;23.24;22.07;101582.94;3617112;39;20549;-65
2021/04/01 11:34:51;;;;;;;34.30;17.73;;;;;;;23.28;21.93;101591.81;3613609;39;20408;-66
2021/04/01 11:37:21;;;;;;;29.23;15.27;;;;;;;23.30;21.49;101587.72;3613164;39;20972;-66
2021/04/01 11:39:50;;;;;;;34.47;17.55;;;;;;;23.32;21.72;101590.31;3615096;39;20083;-67
2021/04/01 11:42:19;;;;;;;32.38;18.05;;;;;;;23.34;21.71;101585.41;3618708;39;20185;-65
2021/04/01 11:44:46;;;;;;;32.95;17.45;;;;;;;23.33;21.35;101586.47;3614078;39;20196;-66
2021/04/01 11:47:23;;;;;;;31.65;17.15;;;;;;;23.38;20.97;101583.97;3616523;39;20075;-66
2021/04/01 11:49:52;;;;;;;31.20;16.38;;;;;;;23.36;21.54;101583.28;3618958;39;20067;-66
2021/04/01 11:52:23;;;;;;;32.97;17.42;;;;;;;23.40;21.16;101583.75;3613357;39;20122;-66
2021/04/01 11:54:53;;;;;;;33.83;17.55;;;;;;;23.41;21.78;101585.47;3613896;39;20107;-65
2021/04/01 11:57:25;;;;;;;29.52;16.63;;;;;;;23.42;21.68;101578.84;3612638;39;20083;-65
2021/04/01 11:59:55;;;;;;;31.35;17.30;;;;;;;23.42;21.92;101590.00;3603004;39;20168;-65
2021/04/01 12:02:25;;;;;;;33.67;17.63;;;;;;;23.44;21.61;101576.72;3615143;39;20134;-65
2021/04/01 12:04:56;;;;;;;32.65;18.38;;;;;;;23.45;21.46;101576.53;3619082;39;20103;-65
2021/04/01 12:07:25;;;;;;;31.02;16.10;;;;;;;23.47;21.79;101582.78;3613547;39;20431;-65
2021/04/01 12:09:53;;;;;;;30.90;16.77;;;;;;;23.47;21.13;101576.31;3604925;39;20083;-65
2021/04/01 12:12:28;;;;;;;29.38;17.08;;;;;;;23.50;21.09;101578.72;3608714;39;20112;-65
2021/04/01 12:14:56;;;;;;;29.95;17.23;;;;;;;23.46;21.14;101574.63;3605606;39;20171;-66
2021/04/01 12:17:35;;;;;;;30.50;17.40;;;;;;;23.50;21.00;101570.34;3616467;39;20071;-65
2021/04/01 12:20:04;;;;;;;26.15;14.55;;;;;;;23.49;20.70;101580.66;3613466;39;20417;-65
2021/04/01 12:22:36;;;;;;;27.60;14.85;;;;;;;23.51;20.63;101584.13;3616806;39;20075;-65
2021/04/01 12:25:06;;;;;;;26.77;15.32;;;;;;;23.51;20.55;101577.66;3610216;39;20109;-65
2021/04/01 12:27:33;;;;;;;29.08;14.52;;;;;;;23.50;21.17;101576.81;3614407;39;20111;-65
2021/04/01 12:30:06;;;;;;;27.75;14.90;;;;;;;23.54;20.41;101588.44;3615142;39;20483;-65
2021/04/01 12:32:35;;;;;;;29.08;16.88;;;;;;;23.51;21.11;101581.31;3614527;39;20337;-64
2021/04/01 12:35:09;;;;;;;30.80;17.58;;;;;;;23.55;20.66;101584.59;3610293;39;20110;-66
2021/04/01 12:37:39;;;;;;;32.25;19.02;;;;;;;23.53;21.13;101586.72;3615631;39;20091;-66
2021/04/01 12:40:18;;;;;;;28.95;17.63;;;;;;;23.54;21.00;101585.66;3614774;39;20082;-66
2021/04/01 12:42:46;;;;;;;32.20;18.27;;;;;;;23.50;20.94;101587.09;3614964;39;20095;-65
2021/04/01 12:45:23;;;;;;;30.92;19.25;;;;;;;23.52;20.97;101582.19;3614538;39;20394;-65
2021/04/01 12:48:12;;;;;;;34.35;19.33;;;;;;;23.47;21.55;101579.97;3613987;39;20079;-66